createdAt,value
2023-03-04T00:01:10.241Z,44.05
2023-03-04T00:04:13.264Z,44.11
2023-03-04T00:07:18.948Z,44.10
2023-03-04T00:10:21.969Z,43.90
2023-03-04T00:13:26.400Z,43.64
2023-03-04T00:16:29.405Z,43.39
2023-03-04T00:19:32.797Z,43.69
2023-03-04T00:22:35.782Z,43.73
2023-03-04T00:25:38.772Z,43.72
2023-03-04T00:28:43.259Z,43.62
2023-03-04T00:31:46.345Z,43.37
2023-03-04T00:34:49.441Z,43.54
2023-03-04T00:37:52.421Z,43.57
2023-03-04T00:40:56.100Z,43.71
2023-03-04T00:44:00.392Z,43.84
2023-03-04T00:47:03.314Z,43.73
2023-03-04T00:50:07.502Z,43.78
2023-03-04T00:53:11.353Z,43.69
2023-03-04T00:56:14.435Z,43.74
2023-03-04T00:59:18.728Z,43.70
2023-03-04T01:02:21.712Z,43.59
2023-03-04T01:05:24.670Z,43.82
2023-03-04T01:08:27.752Z,43.62
2023-03-04T01:11:30.666Z,43.63
2023-03-04T01:14:35.068Z,43.45
2023-03-04T01:17:38.241Z,43.38
2023-03-04T01:20:41.177Z,43.42
2023-03-04T01:23:44.209Z,43.48
2023-03-04T01:26:47.218Z,43.35
2023-03-04T01:29:52.002Z,43.53
2023-03-04T01:32:54.979Z,43.36
2023-03-04T01:35:58.349Z,43.46
2023-03-04T01:39:01.949Z,43.28
2023-03-04T01:42:05.058Z,43.39
2023-03-04T01:45:15.233Z,43.31
2023-03-04T01:48:21.189Z,43.38
2023-03-04T01:51:24.403Z,43.64
2023-03-04T01:54:27.503Z,43.41
2023-03-04T01:57:36.602Z,43.39
2023-03-04T02:00:41.364Z,43.56
2023-03-04T02:03:44.396Z,43.60
2023-03-04T02:06:49.031Z,43.65
2023-03-04T02:09:52.008Z,43.59
2023-03-04T02:12:55.148Z,43.51
2023-03-04T02:16:00.138Z,43.57
2023-03-04T02:19:08.512Z,43.62
2023-03-04T02:22:11.727Z,43.56
2023-03-04T02:25:19.658Z,43.64
2023-03-04T02:28:24.097Z,43.42
2023-03-04T02:31:31.642Z,43.52
2023-03-04T02:34:36.514Z,43.48
2023-03-04T02:37:39.497Z,43.51
2023-03-04T02:40:45.025Z,43.59
2023-03-04T02:43:51.820Z,43.63
2023-03-04T02:46:56.230Z,43.52
2023-03-04T02:50:01.169Z,43.57
2023-03-04T02:53:04.507Z,43.57
2023-03-04T02:56:08.207Z,43.56
2023-03-04T02:59:14.839Z,43.66
2023-03-04T03:02:17.879Z,43.59
2023-03-04T03:05:21.577Z,43.67
2023-03-04T03:08:25.541Z,43.79
2023-03-04T03:11:29.868Z,43.60
2023-03-04T03:14:35.381Z,43.71
2023-03-04T03:17:40.100Z,43.54
2023-03-04T03:20:43.124Z,43.70
2023-03-04T03:23:46.464Z,43.65
2023-03-04T03:26:49.385Z,43.67
2023-03-04T03:29:53.712Z,43.65
2023-03-04T03:32:56.754Z,43.57
2023-03-04T03:36:00.295Z,43.65
2023-03-04T03:39:03.336Z,43.53
2023-03-04T03:42:06.295Z,43.51
2023-03-04T03:45:12.613Z,43.59
2023-03-04T03:48:15.595Z,43.71
2023-03-04T03:51:18.567Z,43.65
2023-03-04T03:54:21.675Z,43.55
2023-03-04T03:57:24.593Z,43.59
2023-03-04T04:00:28.888Z,43.68
2023-03-04T04:03:32.003Z,43.72
2023-03-04T04:06:35.040Z,43.51
2023-03-04T04:09:37.938Z,43.74
2023-03-04T04:12:41.159Z,43.69
2023-03-04T04:15:45.545Z,43.63
2023-03-04T04:18:48.712Z,43.55
2023-03-04T04:21:51.606Z,43.55
2023-03-04T04:24:54.550Z,43.49
2023-03-04T04:27:57.901Z,43.58
2023-03-04T04:31:02.218Z,43.58
2023-03-04T04:34:05.209Z,43.54
2023-03-04T04:37:08.348Z,43.65
2023-03-04T04:40:12.385Z,43.50
2023-03-04T04:43:15.321Z,43.52
2023-03-04T04:46:20.014Z,43.58
2023-03-04T04:49:22.998Z,43.53
2023-03-04T04:52:25.891Z,43.55
2023-03-04T04:55:28.968Z,43.51
2023-03-04T04:58:31.876Z,43.57
2023-03-04T05:01:36.423Z,43.51
2023-03-04T05:04:39.402Z,43.56
2023-03-04T05:07:42.317Z,43.56
2023-03-04T05:10:45.386Z,43.49
2023-03-04T05:13:49.260Z,43.71
2023-03-04T05:16:53.988Z,43.50
2023-03-04T05:19:56.855Z,43.53
2023-03-04T05:23:00.231Z,43.55
2023-03-04T05:26:03.520Z,43.56
2023-03-04T05:29:06.473Z,43.54
2023-03-04T05:32:10.904Z,43.56
2023-03-04T05:35:13.884Z,43.53
2023-03-04T05:38:19.751Z,43.24
2023-03-04T05:41:22.998Z,43.59
2023-03-04T05:44:25.957Z,43.63
2023-03-04T05:47:30.211Z,43.47
2023-03-04T05:50:33.725Z,43.54
2023-03-04T05:53:37.713Z,43.64
2023-03-04T05:56:40.622Z,43.65
2023-03-04T05:59:43.522Z,43.64
2023-03-04T06:02:47.781Z,43.65
2023-03-04T06:05:50.884Z,43.50
2023-03-04T06:08:53.904Z,43.60
2023-03-04T06:11:56.793Z,43.56
2023-03-04T06:14:59.862Z,43.58
2023-03-04T06:18:04.542Z,43.54
2023-03-04T06:21:07.503Z,43.55
2023-03-04T06:24:10.451Z,43.47
2023-03-04T06:27:13.875Z,43.49
2023-03-04T06:30:17.544Z,43.55
2023-03-04T06:33:22.373Z,43.62
2023-03-04T06:36:25.393Z,43.53
2023-03-04T06:39:28.474Z,43.49
2023-03-04T06:42:31.490Z,43.58
2023-03-04T06:45:34.444Z,43.46
2023-03-04T06:48:38.756Z,43.65
2023-03-04T06:51:42.195Z,43.60
2023-03-04T06:54:45.372Z,43.57
2023-03-04T06:57:48.654Z,43.67
2023-03-04T07:00:51.593Z,43.67
2023-03-04T07:03:57.616Z,43.65
2023-03-04T07:07:00.804Z,43.63
2023-03-04T07:10:04.740Z,43.58
2023-03-04T07:13:07.877Z,43.66
2023-03-04T07:16:13.021Z,43.65
2023-03-04T07:19:17.579Z,43.64
2023-03-04T07:22:20.562Z,43.58
2023-03-04T07:25:23.569Z,43.51
2023-03-04T07:28:26.730Z,43.58
2023-03-04T07:31:32.164Z,43.52
2023-03-04T07:34:36.636Z,43.53
2023-03-04T07:37:40.285Z,43.55
2023-03-04T07:40:43.321Z,43.63
2023-03-04T07:43:46.473Z,43.55
2023-03-04T07:46:49.464Z,43.67
2023-03-04T07:49:53.756Z,43.67
2023-03-04T07:52:56.744Z,43.81
2023-03-04T07:56:02.277Z,43.65
2023-03-04T07:59:05.729Z,43.78
2023-03-04T08:02:09.864Z,43.79
2023-03-04T08:05:14.680Z,43.65
2023-03-04T08:08:17.673Z,43.74
2023-03-04T08:11:22.474Z,43.62
2023-03-04T08:14:25.371Z,43.74
2023-03-04T08:17:29.795Z,43.73
2023-03-04T08:20:34.187Z,43.64
2023-03-04T08:23:37.213Z,43.73
2023-03-04T08:26:43.097Z,43.80
2023-03-04T08:29:46.116Z,43.71
2023-03-04T08:32:49.191Z,43.56
2023-03-04T08:35:54.277Z,42.84
2023-03-04T08:38:57.682Z,41.83
2023-03-04T08:42:00.757Z,41.20
2023-03-04T08:45:03.918Z,39.93
2023-03-04T08:48:07.637Z,38.49
2023-03-04T08:51:13.880Z,38.68
2023-03-04T08:54:16.809Z,38.55
2023-03-04T08:57:19.766Z,38.33
2023-03-04T09:00:23.802Z,38.22
2023-03-04T09:03:27.175Z,38.08
2023-03-04T09:06:31.584Z,38.13
2023-03-04T09:09:34.503Z,38.18
2023-03-04T09:12:37.365Z,38.33
2023-03-04T09:15:45.553Z,38.42
2023-03-04T09:18:48.667Z,38.47
2023-03-04T09:21:53.028Z,38.64
2023-03-04T09:24:56.471Z,38.79
2023-03-04T09:27:59.476Z,38.82
2023-03-04T09:31:02.515Z,39.01
2023-03-04T09:34:05.459Z,39.16
2023-03-04T09:37:09.748Z,39.34
2023-03-04T09:40:18.900Z,39.47
2023-03-04T09:43:29.393Z,39.60
2023-03-04T09:46:36.181Z,39.57
2023-03-04T09:49:42.014Z,39.82
2023-03-04T09:53:06.317Z,39.77
2023-03-04T09:56:10.616Z,39.91
2023-03-04T09:59:20.464Z,39.86
2023-03-04T10:02:29.474Z,39.99
2023-03-04T10:05:35.479Z,40.17
2023-03-04T10:08:46.709Z,40.17
2023-03-04T10:11:59.717Z,40.31
2023-03-04T10:15:05.682Z,40.35
2023-03-04T10:18:15.128Z,40.55
2023-03-04T10:21:24.748Z,40.55
2023-03-04T10:24:30.975Z,40.52
2023-03-04T10:27:34.000Z,40.57
2023-03-04T10:30:47.204Z,40.51
2023-03-04T10:33:50.742Z,40.54
2023-03-04T10:36:59.538Z,40.56
2023-03-04T10:40:04.090Z,40.66
2023-03-04T10:43:08.314Z,40.73
2023-03-04T10:46:12.711Z,40.67
2023-03-04T10:49:17.527Z,40.63
2023-03-04T10:52:29.713Z,40.67
2023-03-04T10:55:45.029Z,40.76
2023-03-04T10:58:48.024Z,40.76
2023-03-04T11:01:51.689Z,40.83
2023-03-04T11:05:07.060Z,40.92
2023-03-04T11:08:19.985Z,40.74
2023-03-04T11:11:26.489Z,40.67
2023-03-04T11:14:36.160Z,40.87
2023-03-04T11:17:48.347Z,40.92
2023-03-04T11:20:52.159Z,41.05
2023-03-04T11:23:59.900Z,41.04
2023-03-04T11:27:07.461Z,41.00
2023-03-04T11:30:36.263Z,41.12
2023-03-04T11:33:48.273Z,41.08
2023-03-04T11:36:57.203Z,41.19
2023-03-04T11:40:05.246Z,41.15
2023-03-04T11:43:15.250Z,41.13
2023-03-04T11:46:45.311Z,41.07
2023-03-04T11:50:17.520Z,41.18
2023-03-04T11:53:31.730Z,41.25
2023-03-04T11:56:40.183Z,41.09
2023-03-04T11:59:57.937Z,41.19
2023-03-04T12:03:30.491Z,41.25
2023-03-04T12:06:41.764Z,41.31
2023-03-04T12:09:58.501Z,41.25
2023-03-04T12:13:35.439Z,41.34
2023-03-04T12:16:54.053Z,41.22
2023-03-04T12:20:18.376Z,41.29
2023-03-04T12:23:39.051Z,41.46
2023-03-04T12:26:48.060Z,41.35
2023-03-04T12:29:59.797Z,41.40
2023-03-04T12:33:12.660Z,41.49
2023-03-04T12:36:25.432Z,41.37
2023-03-04T12:39:33.320Z,41.36
2023-03-04T12:42:47.874Z,41.41
2023-03-04T12:45:59.803Z,41.33
2023-03-04T12:49:27.533Z,41.48
2023-03-04T12:52:46.106Z,41.44
2023-03-04T12:55:50.929Z,41.46
2023-03-04T12:58:54.791Z,41.42
2023-03-04T13:02:10.180Z,41.34
2023-03-04T13:05:26.256Z,41.37
2023-03-04T13:08:35.747Z,41.54
2023-03-04T13:11:47.392Z,41.82
2023-03-04T13:15:29.472Z,41.46
2023-03-04T13:18:33.888Z,41.57
2023-03-04T13:21:47.329Z,41.58
2023-03-04T13:24:51.110Z,41.61
2023-03-04T13:28:15.475Z,41.62
2023-03-04T13:31:27.795Z,41.63
2023-03-04T13:34:48.936Z,41.61
2023-03-04T13:38:00.964Z,41.69
2023-03-04T13:41:14.980Z,41.55
2023-03-04T13:44:36.521Z,41.57
2023-03-04T13:47:47.697Z,41.50
2023-03-04T13:50:51.772Z,41.52
2023-03-04T13:53:56.756Z,41.47
2023-03-04T13:57:17.972Z,41.56
2023-03-04T14:00:21.362Z,41.60
2023-03-04T14:03:26.247Z,41.56
2023-03-04T14:06:31.795Z,41.64
2023-03-04T14:09:36.368Z,41.65
2023-03-04T14:12:44.238Z,41.68
2023-03-04T14:15:56.131Z,41.68
2023-03-04T14:19:02.203Z,41.62
2023-03-04T14:22:20.168Z,41.69
2023-03-04T14:25:27.275Z,41.48
2023-03-04T14:28:30.227Z,41.56
2023-03-04T14:31:36.215Z,41.75
2023-03-04T14:34:40.493Z,41.71
2023-03-04T14:37:49.972Z,41.60
2023-03-04T14:41:00.374Z,41.81
2023-03-04T14:44:13.237Z,41.69
2023-03-04T14:47:21.017Z,41.72
2023-03-04T14:50:24.168Z,41.82
2023-03-04T14:53:29.076Z,41.85
2023-03-04T14:56:36.178Z,41.95
2023-03-04T14:59:39.164Z,41.86
2023-03-04T15:02:42.457Z,41.76
2023-03-04T15:05:45.652Z,41.82
2023-03-04T15:08:57.084Z,41.93
2023-03-04T15:12:04.783Z,41.92
2023-03-04T15:15:33.503Z,41.82
2023-03-04T15:18:36.977Z,42.01
2023-03-04T15:21:41.188Z,41.91
2023-03-04T15:24:44.131Z,41.97
2023-03-04T15:27:49.650Z,41.90
2023-03-04T15:30:53.520Z,41.96
2023-03-04T15:33:56.513Z,42.01
2023-03-04T15:37:01.090Z,42.02
2023-03-04T15:40:06.294Z,42.00
2023-03-04T15:43:14.947Z,42.12
2023-03-04T15:46:18.257Z,42.07
2023-03-04T15:49:21.793Z,42.05
2023-03-04T15:52:25.806Z,42.08
2023-03-04T15:55:29.879Z,42.15
2023-03-04T15:58:35.274Z,42.22
2023-03-04T16:01:38.770Z,42.10
2023-03-04T16:04:41.789Z,42.14
2023-03-04T16:07:47.292Z,42.15
2023-03-04T16:10:51.308Z,42.18
2023-03-04T16:13:55.607Z,42.15
2023-03-04T16:16:58.564Z,42.14
2023-03-04T16:20:01.442Z,42.20
2023-03-04T16:23:05.648Z,42.18
2023-03-04T16:26:16.142Z,42.26
2023-03-04T16:29:20.642Z,42.38
2023-03-04T16:32:24.641Z,42.39
2023-03-04T16:35:29.149Z,42.39
2023-03-04T16:38:34.694Z,42.37
2023-03-04T16:41:37.687Z,42.42
2023-03-04T16:44:42.048Z,42.42
2023-03-04T16:47:45.075Z,42.26
2023-03-04T16:50:48.410Z,42.37
2023-03-04T16:53:56.242Z,42.36
2023-03-04T16:56:59.744Z,42.48
2023-03-04T17:00:06.581Z,42.38
2023-03-04T17:03:12.251Z,42.52
2023-03-04T17:06:16.908Z,42.62
2023-03-04T17:09:19.869Z,42.47
2023-03-04T17:12:22.976Z,42.51
2023-03-04T17:15:27.292Z,42.55
2023-03-04T17:18:30.754Z,43.06
2023-03-04T17:21:33.695Z,43.28
2023-03-04T17:24:36.640Z,43.06
2023-03-04T17:27:39.759Z,42.79
2023-03-04T17:30:44.078Z,42.67
2023-03-04T17:33:47.595Z,42.53
2023-03-04T17:36:50.486Z,42.63
2023-03-04T17:39:53.504Z,42.54
2023-03-04T17:42:56.555Z,42.50
2023-03-04T17:46:06.168Z,42.54
2023-03-04T17:49:09.126Z,42.39
2023-03-04T17:52:13.050Z,42.29
2023-03-04T17:55:16.181Z,42.16
2023-03-04T17:58:19.203Z,41.95
2023-03-04T18:01:24.036Z,41.65
2023-03-04T18:04:27.037Z,41.73
2023-03-04T18:07:30.269Z,41.58
2023-03-04T18:10:34.007Z,41.55
2023-03-04T18:13:38.501Z,41.55
2023-03-04T18:16:43.175Z,41.48
2023-03-04T18:19:46.134Z,41.42
2023-03-04T18:22:49.133Z,41.49
2023-03-04T18:25:52.397Z,41.49
2023-03-04T18:28:56.835Z,41.66
2023-03-04T18:32:01.383Z,41.46
2023-03-04T18:35:05.192Z,41.61
2023-03-04T18:38:08.156Z,41.59
2023-03-04T18:41:13.516Z,41.73
2023-03-04T18:44:16.687Z,41.64
2023-03-04T18:47:21.743Z,41.72
2023-03-04T18:50:24.804Z,41.65
2023-03-04T18:53:29.243Z,41.51
2023-03-04T18:56:38.396Z,41.71
2023-03-04T18:59:45.700Z,41.84
2023-03-04T19:02:55.629Z,42.11
2023-03-04T19:05:59.164Z,43.07
2023-03-04T19:09:03.089Z,42.56
2023-03-04T19:12:06.687Z,42.23
2023-03-04T19:15:11.291Z,41.88
2023-03-04T19:18:15.576Z,41.92
2023-03-04T19:21:19.402Z,41.89
2023-03-04T19:24:22.310Z,42.00
2023-03-04T19:27:25.587Z,42.14
2023-03-04T19:30:28.692Z,42.07
2023-03-04T19:33:33.384Z,42.04
2023-03-04T19:36:36.389Z,42.11
2023-03-04T19:39:39.852Z,41.93
2023-03-04T19:42:42.781Z,42.07
2023-03-04T19:45:54.195Z,41.90
2023-03-04T19:48:58.870Z,41.92
2023-03-04T19:52:02.573Z,41.99
2023-03-04T19:55:06.320Z,42.05
2023-03-04T19:58:09.213Z,42.03
2023-03-04T20:01:21.451Z,42.08
2023-03-04T20:04:25.833Z,42.02
2023-03-04T20:07:28.779Z,42.13
2023-03-04T20:10:32.775Z,42.14
2023-03-04T20:13:35.677Z,42.10
2023-03-04T20:16:38.708Z,42.09
2023-03-04T20:19:44.109Z,42.07
2023-03-04T20:22:47.095Z,42.07
2023-03-04T20:25:50.052Z,42.14
2023-03-04T20:28:53.099Z,42.05
2023-03-04T20:31:58.000Z,42.14
2023-03-04T20:35:02.477Z,42.13
2023-03-04T20:38:05.458Z,42.14
2023-03-04T20:41:08.489Z,42.09
2023-03-04T20:44:11.571Z,42.14
2023-03-04T20:47:14.604Z,42.24
2023-03-04T20:50:18.944Z,42.20
2023-03-04T20:53:21.928Z,42.33
2023-03-04T20:56:25.349Z,42.29
2023-03-04T20:59:28.362Z,42.34
2023-03-04T21:02:31.448Z,42.31
2023-03-04T21:05:35.736Z,42.16
2023-03-04T21:08:38.631Z,42.25
2023-03-04T21:11:42.042Z,42.26
2023-03-04T21:14:45.272Z,42.26
2023-03-04T21:17:49.760Z,42.29
2023-03-04T21:20:54.190Z,42.30
2023-03-04T21:23:59.175Z,42.23
2023-03-04T21:27:03.015Z,42.30
2023-03-04T21:30:07.007Z,42.38
2023-03-04T21:33:18.614Z,42.33
2023-03-04T21:36:23.904Z,42.29
2023-03-04T21:39:27.001Z,42.29
2023-03-04T21:42:30.056Z,42.28
2023-03-04T21:45:32.977Z,42.33
2023-03-04T21:48:35.951Z,42.25
2023-03-04T21:51:40.432Z,42.27
2023-03-04T21:54:43.372Z,42.33
2023-03-04T21:57:46.335Z,42.34
2023-03-04T22:00:49.806Z,42.35
2023-03-04T22:03:52.919Z,42.29
2023-03-04T22:06:57.245Z,42.38
2023-03-04T22:10:00.334Z,42.35
2023-03-04T22:13:03.275Z,42.42
2023-03-04T22:16:07.180Z,42.42
2023-03-04T22:19:10.217Z,42.47
2023-03-04T22:22:17.845Z,42.48
2023-03-04T22:25:20.827Z,42.53
2023-03-04T22:28:28.258Z,42.46
2023-03-04T22:31:33.571Z,42.48
2023-03-04T22:34:36.508Z,42.51
2023-03-04T22:37:40.892Z,42.51
2023-03-04T22:40:43.910Z,42.58
2023-03-04T22:43:47.347Z,42.32
2023-03-04T22:46:50.705Z,42.53
2023-03-04T22:49:53.576Z,42.57
2023-03-04T22:52:58.282Z,42.54
2023-03-04T22:56:01.168Z,42.64
2023-03-04T22:59:04.268Z,42.65
2023-03-04T23:02:07.580Z,42.64
2023-03-04T23:05:11.421Z,42.61
2023-03-04T23:08:15.937Z,42.70
2023-03-04T23:11:21.116Z,42.63
2023-03-04T23:14:24.167Z,42.53
2023-03-04T23:17:27.155Z,42.68
2023-03-04T23:20:30.131Z,42.61
2023-03-04T23:23:34.494Z,42.52
2023-03-04T23:26:40.063Z,42.58
2023-03-04T23:29:43.117Z,42.56
2023-03-04T23:32:46.129Z,42.51
2023-03-04T23:35:49.210Z,42.58
2023-03-04T23:38:53.636Z,42.60
2023-03-04T23:41:56.559Z,42.74
2023-03-04T23:44:59.449Z,42.71
2023-03-04T23:48:02.340Z,42.67
2023-03-04T23:51:05.924Z,42.62
2023-03-04T23:54:10.229Z,42.64
2023-03-04T23:57:13.416Z,42.47
